createdAt,value
2022-07-29T00:01:20.172Z,62.02
2022-07-29T00:03:48.933Z,62.12
2022-07-29T00:06:17.323Z,62.18
2022-07-29T00:08:45.069Z,62.29
2022-07-29T00:11:13.062Z,62.42
2022-07-29T00:13:40.912Z,62.55
2022-07-29T00:16:08.695Z,62.80
2022-07-29T00:18:36.510Z,62.65
2022-07-29T00:21:04.308Z,62.92
2022-07-29T00:23:36.480Z,63.19
2022-07-29T00:26:04.625Z,63.29
2022-07-29T00:28:32.494Z,63.44
2022-07-29T00:31:00.548Z,63.54
2022-07-29T00:33:29.205Z,63.74
2022-07-29T00:35:57.255Z,63.94
2022-07-29T00:38:25.186Z,63.89
2022-07-29T00:40:53.443Z,64.06
2022-07-29T00:43:21.217Z,64.26
2022-07-29T00:45:49.021Z,64.43
2022-07-29T00:48:16.710Z,64.39
2022-07-29T00:50:44.478Z,64.63
2022-07-29T00:53:13.096Z,64.53
2022-07-29T00:55:40.949Z,64.73
2022-07-29T00:58:09.606Z,64.99
2022-07-29T01:00:37.977Z,64.83
2022-07-29T01:03:05.887Z,64.85
2022-07-29T01:05:49.926Z,64.88
2022-07-29T01:08:21.199Z,64.84
2022-07-29T01:10:50.341Z,65.00
2022-07-29T01:13:18.930Z,65.10
2022-07-29T01:16:14.013Z,65.34
2022-07-29T01:18:48.067Z,65.54
2022-07-29T01:21:43.395Z,65.65
2022-07-29T01:24:59.735Z,65.69
2022-07-29T01:28:21.458Z,66.10
2022-07-29T01:30:54.679Z,66.40
2022-07-29T01:33:44.931Z,66.55
2022-07-29T01:36:22.909Z,66.77
2022-07-29T01:39:21.050Z,66.97
2022-07-29T01:42:05.615Z,67.10
2022-07-29T01:44:42.435Z,67.02
2022-07-29T01:47:18.493Z,67.05
2022-07-29T01:49:52.455Z,67.28
2022-07-29T01:52:28.707Z,67.33
2022-07-29T01:55:02.690Z,67.61
2022-07-29T01:57:34.570Z,67.71
2022-07-29T02:00:05.314Z,67.63
2022-07-29T02:02:44.652Z,67.86
2022-07-29T02:05:17.119Z,68.14
2022-07-29T02:07:48.282Z,68.28
2022-07-29T02:10:25.847Z,68.22
2022-07-29T02:12:56.884Z,68.19
2022-07-29T02:15:29.468Z,68.26
2022-07-29T02:18:16.480Z,68.28
2022-07-29T02:20:52.818Z,68.42
2022-07-29T02:23:23.904Z,68.61
2022-07-29T02:25:57.950Z,68.66
2022-07-29T02:28:29.446Z,68.97
2022-07-29T02:31:01.931Z,69.11
2022-07-29T02:33:32.874Z,69.19
2022-07-29T02:36:02.579Z,69.33
2022-07-29T02:38:50.028Z,69.31
2022-07-29T02:41:58.313Z,69.46
2022-07-29T02:44:31.237Z,69.42
2022-07-29T02:47:22.882Z,69.83
2022-07-29T02:50:01.162Z,70.09
2022-07-29T02:53:04.410Z,70.23
2022-07-29T02:55:40.404Z,70.39
2022-07-29T02:58:29.646Z,70.47
2022-07-29T03:01:05.405Z,70.41
2022-07-29T03:03:38.862Z,70.57
2022-07-29T03:06:08.503Z,70.65
2022-07-29T03:08:37.877Z,70.61
2022-07-29T03:11:06.240Z,70.87
2022-07-29T03:13:35.814Z,71.01
2022-07-29T03:16:04.523Z,71.04
2022-07-29T03:18:33.258Z,71.02
2022-07-29T03:21:01.218Z,71.05
2022-07-29T03:23:35.241Z,71.35
2022-07-29T03:26:04.983Z,71.72
2022-07-29T03:28:32.742Z,71.83
2022-07-29T03:31:02.065Z,71.91
2022-07-29T03:33:31.274Z,72.03
2022-07-29T03:35:59.327Z,72.03
2022-07-29T03:38:31.947Z,72.01
2022-07-29T03:41:07.024Z,72.19
2022-07-29T03:43:49.124Z,72.59
2022-07-29T03:46:19.375Z,72.88
2022-07-29T03:48:53.854Z,72.99
2022-07-29T03:51:34.049Z,73.11
2022-07-29T03:54:09.667Z,73.32
2022-07-29T03:56:49.063Z,73.46
2022-07-29T03:59:20.425Z,73.40
2022-07-29T04:01:49.624Z,73.47
2022-07-29T04:04:18.159Z,73.67
2022-07-29T04:06:48.180Z,73.77
2022-07-29T04:09:16.207Z,73.72
2022-07-29T04:11:59.176Z,74.04
2022-07-29T04:14:33.912Z,74.16
2022-07-29T04:17:03.782Z,74.21
2022-07-29T04:19:32.709Z,74.07
2022-07-29T04:22:01.895Z,73.97
2022-07-29T04:24:29.829Z,73.79
2022-07-29T04:26:57.551Z,74.06
2022-07-29T04:29:25.584Z,73.96
2022-07-29T04:31:53.443Z,73.77
2022-07-29T04:34:21.346Z,73.52
2022-07-29T04:36:49.238Z,73.54
2022-07-29T04:39:22.666Z,73.69
2022-07-29T04:41:52.514Z,73.94
2022-07-29T04:44:28.649Z,73.91
2022-07-29T04:46:58.482Z,73.83
2022-07-29T04:49:26.465Z,73.85
2022-07-29T04:51:54.573Z,73.83
2022-07-29T04:54:22.493Z,73.86
2022-07-29T04:56:50.205Z,73.99
2022-07-29T04:59:17.933Z,73.81
2022-07-29T05:01:45.706Z,73.50
2022-07-29T05:04:14.090Z,73.34
2022-07-29T05:06:41.963Z,73.12
2022-07-29T05:09:09.719Z,72.85
2022-07-29T05:11:37.390Z,73.04
2022-07-29T05:14:05.098Z,73.23
2022-07-29T05:16:32.810Z,73.23
2022-07-29T05:19:00.553Z,72.74
2022-07-29T05:21:28.244Z,72.81
2022-07-29T05:23:56.067Z,72.73
2022-07-29T05:26:23.807Z,72.60
2022-07-29T05:28:51.639Z,72.54
2022-07-29T05:31:19.574Z,72.74
2022-07-29T05:33:47.366Z,72.85
2022-07-29T05:36:15.110Z,72.63
2022-07-29T05:38:42.906Z,72.45
2022-07-29T05:41:10.664Z,72.37
2022-07-29T05:43:38.586Z,72.34
2022-07-29T05:46:06.383Z,72.42
2022-07-29T05:48:34.148Z,72.43
2022-07-29T05:51:02.295Z,72.26
2022-07-29T05:53:30.038Z,72.21
2022-07-29T05:55:57.806Z,72.50
2022-07-29T05:58:25.618Z,72.51
2022-07-29T06:00:53.857Z,72.69
2022-07-29T06:03:21.573Z,72.70
2022-07-29T06:05:49.307Z,72.60
2022-07-29T06:08:17.028Z,72.45
2022-07-29T06:10:44.959Z,72.22
2022-07-29T06:13:13.740Z,71.99
2022-07-29T06:15:41.838Z,71.87
2022-07-29T06:18:11.120Z,71.51
2022-07-29T06:20:39.066Z,71.07
2022-07-29T06:23:07.097Z,70.71
2022-07-29T06:25:37.577Z,70.67
2022-07-29T06:28:05.465Z,70.23
2022-07-29T06:30:33.792Z,69.84
2022-07-29T06:33:02.869Z,69.58
2022-07-29T06:35:39.042Z,69.31
2022-07-29T06:38:30.344Z,69.16
2022-07-29T06:41:00.938Z,68.99
2022-07-29T06:43:51.917Z,68.46
2022-07-29T06:46:21.649Z,68.31
2022-07-29T06:48:50.244Z,67.80
2022-07-29T06:51:22.759Z,67.86
2022-07-29T06:53:58.082Z,67.66
2022-07-29T06:56:26.547Z,67.43
2022-07-29T06:58:54.258Z,67.62
2022-07-29T07:01:22.160Z,67.38
2022-07-29T07:03:50.700Z,67.20
2022-07-29T07:06:18.473Z,66.59
2022-07-29T07:08:46.368Z,66.29
2022-07-29T07:11:14.189Z,66.42
2022-07-29T07:13:41.970Z,66.32
2022-07-29T07:16:09.930Z,66.18
2022-07-29T07:18:37.673Z,66.37
2022-07-29T07:21:06.630Z,66.52
2022-07-29T07:23:34.282Z,66.48
2022-07-29T07:26:02.006Z,66.01
2022-07-29T07:28:30.246Z,65.63
2022-07-29T07:30:57.983Z,65.36
2022-07-29T07:33:25.758Z,64.96
2022-07-29T07:35:53.517Z,64.53
2022-07-29T07:38:21.211Z,64.81
2022-07-29T07:40:48.951Z,64.32
2022-07-29T07:43:16.707Z,64.29
2022-07-29T07:45:44.607Z,64.49
2022-07-29T07:48:12.435Z,64.11
2022-07-29T07:50:40.266Z,64.10
2022-07-29T07:53:08.168Z,64.20
2022-07-29T07:56:08.175Z,64.59
2022-07-29T07:58:29.864Z,63.67
2022-07-29T08:00:57.825Z,62.75
2022-07-29T08:03:25.595Z,62.74
2022-07-29T08:05:55.137Z,62.82
2022-07-29T08:08:22.864Z,62.57
2022-07-29T08:10:53.672Z,62.17
2022-07-29T08:13:24.842Z,61.80
2022-07-29T08:15:58.983Z,61.24
2022-07-29T08:18:29.848Z,61.07
2022-07-29T08:20:58.682Z,60.25
2022-07-29T08:23:32.948Z,59.48
2022-07-29T08:26:15.265Z,59.11
2022-07-29T08:28:46.795Z,58.65
2022-07-29T08:31:15.250Z,58.37
2022-07-29T08:33:43.729Z,58.04
2022-07-29T08:36:11.483Z,57.75
2022-07-29T08:38:39.227Z,56.53
2022-07-29T08:41:07.090Z,54.95
2022-07-29T08:43:38.211Z,52.99
2022-07-29T08:46:06.048Z,53.70
2022-07-29T08:48:35.285Z,53.68
2022-07-29T08:51:04.560Z,53.71
2022-07-29T08:53:33.965Z,53.87
2022-07-29T08:56:02.908Z,53.61
2022-07-29T08:58:36.915Z,52.66
2022-07-29T09:01:09.913Z,52.14
2022-07-29T09:03:42.377Z,52.68
2022-07-29T09:06:13.427Z,52.68
2022-07-29T09:08:41.825Z,51.74
2022-07-29T09:11:09.706Z,50.57
2022-07-29T09:13:37.420Z,51.11
2022-07-29T09:16:09.397Z,50.11
2022-07-29T09:18:44.022Z,50.26
2022-07-29T09:21:36.976Z,50.39
2022-07-29T09:24:14.533Z,50.08
2022-07-29T09:26:47.017Z,50.49
2022-07-29T09:29:20.999Z,49.17
2022-07-29T09:31:53.251Z,49.68
2022-07-29T09:34:29.612Z,50.03
2022-07-29T09:36:58.272Z,50.57
2022-07-29T09:39:38.959Z,50.15
2022-07-29T09:42:07.602Z,51.01
2022-07-29T09:44:51.238Z,50.65
2022-07-29T09:47:22.736Z,50.16
2022-07-29T09:50:00.499Z,50.04
2022-07-29T09:52:30.895Z,49.07
2022-07-29T09:55:18.267Z,48.80
2022-07-29T09:57:48.377Z,48.75
2022-07-29T10:00:19.862Z,49.73
2022-07-29T10:02:48.839Z,49.20
2022-07-29T10:05:26.770Z,48.78
2022-07-29T10:08:06.141Z,48.65
2022-07-29T10:10:41.044Z,49.13
2022-07-29T10:13:15.672Z,48.37
2022-07-29T10:15:46.863Z,48.01
2022-07-29T10:18:18.335Z,46.33
2022-07-29T10:20:46.375Z,46.48
2022-07-29T10:23:14.969Z,47.04
2022-07-29T10:25:46.382Z,46.98
2022-07-29T10:28:16.686Z,47.33
2022-07-29T10:30:46.909Z,47.44
2022-07-29T10:33:37.755Z,47.94
2022-07-29T10:37:11.574Z,46.85
2022-07-29T10:40:51.029Z,47.17
2022-07-29T10:43:28.234Z,47.51
2022-07-29T10:46:00.880Z,46.15
2022-07-29T10:48:28.949Z,46.70
2022-07-29T10:51:07.026Z,46.80
2022-07-29T10:53:51.942Z,46.51
2022-07-29T10:56:25.608Z,46.95
2022-07-29T10:59:21.633Z,47.22
2022-07-29T11:01:56.672Z,47.15
2022-07-29T11:04:45.857Z,47.12
2022-07-29T11:07:17.255Z,46.53
2022-07-29T11:09:46.508Z,46.55
2022-07-29T11:12:37.417Z,46.03
2022-07-29T11:15:09.678Z,45.70
2022-07-29T11:17:55.407Z,45.52
2022-07-29T11:23:42.785Z,44.93
2022-07-29T11:26:10.790Z,44.79
2022-07-29T11:28:51.140Z,43.34
2022-07-29T11:31:45.635Z,43.77
2022-07-29T11:34:21.072Z,43.80
2022-07-29T11:37:12.454Z,43.69
2022-07-29T11:39:46.237Z,43.77
2022-07-29T11:45:43.140Z,42.85
2022-07-29T11:48:29.894Z,41.93
2022-07-29T11:51:00.831Z,41.93
2022-07-29T11:53:33.034Z,41.82
2022-07-29T11:56:02.612Z,41.51
2022-07-29T11:58:32.453Z,41.10
2022-07-29T12:01:04.998Z,40.95
2022-07-29T12:03:36.111Z,40.67
2022-07-29T12:06:21.841Z,40.11
2022-07-29T12:07:03.261Z,43.52
2022-07-29T12:08:49.636Z,38.77
2022-07-29T12:11:21.801Z,38.44
2022-07-29T12:13:52.266Z,38.65
2022-07-29T12:16:25.677Z,39.30
2022-07-29T12:18:59.767Z,39.90
2022-07-29T12:21:28.927Z,39.00
2022-07-29T12:24:03.414Z,39.71
2022-07-29T12:26:34.306Z,39.83
2022-07-29T12:29:04.323Z,40.66
2022-07-29T12:31:43.406Z,39.44
2022-07-29T12:34:16.571Z,39.34
2022-07-29T12:36:44.727Z,39.41
2022-07-29T12:39:13.415Z,40.09
2022-07-29T12:41:41.301Z,39.71
2022-07-29T12:44:09.101Z,39.37
2022-07-29T12:46:37.200Z,38.67
2022-07-29T12:49:05.544Z,37.99
2022-07-29T12:51:39.978Z,37.64
2022-07-29T12:54:11.541Z,37.67
2022-07-29T12:56:43.648Z,36.42
2022-07-29T12:59:23.247Z,36.60
2022-07-29T13:01:53.140Z,36.22
2022-07-29T13:04:30.226Z,35.69
2022-07-29T13:07:08.332Z,35.57
2022-07-29T13:09:43.968Z,35.70
2022-07-29T13:12:14.471Z,36.44
2022-07-29T13:14:50.772Z,36.88
2022-07-29T13:17:23.806Z,37.52
2022-07-29T13:20:09.699Z,37.46
2022-07-29T13:22:37.378Z,37.63
2022-07-29T13:25:08.876Z,37.95
2022-07-29T13:27:39.310Z,37.94
2022-07-29T13:30:10.296Z,38.33
2022-07-29T13:32:38.618Z,38.75
2022-07-29T13:35:09.275Z,38.32
2022-07-29T13:37:39.553Z,38.38
2022-07-29T13:40:10.306Z,38.63
2022-07-29T13:42:38.651Z,39.22
2022-07-29T13:45:07.763Z,39.11
2022-07-29T13:47:35.952Z,37.81
2022-07-29T13:50:10.810Z,38.28
2022-07-29T13:52:39.218Z,37.93
2022-07-29T13:55:08.234Z,36.39
2022-07-29T13:57:36.539Z,36.47
2022-07-29T14:00:05.050Z,36.32
2022-07-29T14:02:36.240Z,36.01
2022-07-29T14:05:08.285Z,36.84
2022-07-29T14:07:39.561Z,37.36
2022-07-29T14:10:08.230Z,36.78
2022-07-29T14:12:35.989Z,36.68
2022-07-29T14:15:04.386Z,36.01
2022-07-29T14:17:32.125Z,36.19
2022-07-29T14:19:59.817Z,36.49
2022-07-29T14:22:27.585Z,36.78
2022-07-29T14:24:55.309Z,36.11
2022-07-29T14:27:37.399Z,35.34
2022-07-29T14:30:07.727Z,35.11
2022-07-29T14:32:35.615Z,35.73
2022-07-29T14:35:03.749Z,35.14
2022-07-29T14:37:39.391Z,35.31
2022-07-29T14:40:10.575Z,35.15
2022-07-29T14:42:39.328Z,34.68
2022-07-29T14:45:09.519Z,35.09
2022-07-29T14:47:39.066Z,34.67
2022-07-29T14:50:07.940Z,35.05
2022-07-29T14:52:36.154Z,34.27
2022-07-29T14:55:05.560Z,34.69
2022-07-29T14:57:44.435Z,34.94
2022-07-29T15:00:13.771Z,34.77
2022-07-29T15:03:01.001Z,34.65
2022-07-29T15:05:30.863Z,34.43
2022-07-29T15:08:00.530Z,34.15
2022-07-29T15:10:28.424Z,34.22
2022-07-29T15:12:58.041Z,35.09
2022-07-29T15:15:26.377Z,35.00
2022-07-29T15:17:54.177Z,35.30
2022-07-29T15:20:22.445Z,35.21
2022-07-29T15:22:50.194Z,34.94
2022-07-29T15:25:17.995Z,35.39
2022-07-29T15:27:48.970Z,36.27
2022-07-29T15:30:31.455Z,36.42
2022-07-29T15:33:03.935Z,37.56
2022-07-29T15:35:32.261Z,37.59
2022-07-29T15:38:00.038Z,37.43
2022-07-29T15:40:29.075Z,37.33
2022-07-29T15:42:57.154Z,37.30
2022-07-29T15:45:25.163Z,37.41
2022-07-29T15:47:52.828Z,37.43
2022-07-29T15:50:21.195Z,37.28
2022-07-29T15:52:48.993Z,37.46
2022-07-29T15:55:16.778Z,37.60
2022-07-29T15:57:44.490Z,37.58
2022-07-29T16:00:13.770Z,37.12
2022-07-29T16:02:41.581Z,37.28
2022-07-29T16:05:09.738Z,37.85
2022-07-29T16:07:37.800Z,37.42
2022-07-29T16:10:07.855Z,36.91
2022-07-29T16:12:35.659Z,36.71
2022-07-29T16:15:09.422Z,36.82
2022-07-29T16:17:39.058Z,36.87
2022-07-29T16:20:08.109Z,36.57
2022-07-29T16:22:36.261Z,36.95
2022-07-29T16:25:04.571Z,36.73
2022-07-29T16:27:37.397Z,36.73
2022-07-29T16:30:10.282Z,36.26
2022-07-29T16:32:38.240Z,36.35
2022-07-29T16:35:07.920Z,36.32
2022-07-29T16:37:37.121Z,36.24
2022-07-29T16:40:06.981Z,35.98
2022-07-29T16:42:50.713Z,36.56
2022-07-29T16:45:21.305Z,35.83
2022-07-29T16:47:49.270Z,36.53
2022-07-29T16:50:17.856Z,36.25
2022-07-29T16:52:45.590Z,37.18
2022-07-29T16:55:13.317Z,36.83
2022-07-29T16:57:42.707Z,36.46
2022-07-29T17:00:11.698Z,36.44
2022-07-29T17:02:39.490Z,36.46
2022-07-29T17:05:08.752Z,36.79
2022-07-29T17:07:37.136Z,37.04
2022-07-29T17:10:08.099Z,37.36
2022-07-29T17:12:37.925Z,37.58
2022-07-29T17:15:09.446Z,37.91
2022-07-29T17:17:38.857Z,38.28
2022-07-29T17:20:14.927Z,37.81
2022-07-29T17:22:45.357Z,38.06
2022-07-29T17:25:21.201Z,38.31
2022-07-29T17:27:50.910Z,38.24
2022-07-29T17:30:18.889Z,38.42
2022-07-29T17:32:46.660Z,38.41
2022-07-29T17:35:32.879Z,38.56
2022-07-29T17:38:00.665Z,38.30
2022-07-29T17:40:28.509Z,38.13
2022-07-29T17:42:56.437Z,38.63
2022-07-29T17:45:24.361Z,38.84
2022-07-29T17:47:52.086Z,39.07
2022-07-29T17:50:19.814Z,39.48
2022-07-29T17:52:47.559Z,39.47
2022-07-29T17:55:15.361Z,39.81
2022-07-29T17:57:43.095Z,39.80
2022-07-29T18:00:11.423Z,39.94
2022-07-29T18:02:39.428Z,39.81
2022-07-29T18:05:07.641Z,39.94
2022-07-29T18:07:35.428Z,39.90
2022-07-29T18:10:03.646Z,39.95
2022-07-29T18:12:31.585Z,39.60
2022-07-29T18:14:59.326Z,39.53
2022-07-29T18:17:45.986Z,39.38
2022-07-29T18:20:15.486Z,39.64
2022-07-29T18:22:43.312Z,39.76
2022-07-29T18:25:12.016Z,39.71
2022-07-29T18:27:40.129Z,39.73
2022-07-29T18:30:08.753Z,39.76
2022-07-29T18:32:36.753Z,40.21
2022-07-29T18:35:05.814Z,40.18
2022-07-29T18:38:02.069Z,40.44
2022-07-29T18:40:25.314Z,40.83
2022-07-29T18:42:53.538Z,40.80
2022-07-29T18:45:21.383Z,40.93
2022-07-29T18:47:49.510Z,41.03
2022-07-29T18:50:17.624Z,40.82
2022-07-29T18:52:48.378Z,41.02
2022-07-29T18:55:16.166Z,41.29
2022-07-29T18:57:55.336Z,41.32
2022-07-29T19:00:26.488Z,41.53
2022-07-29T19:02:54.358Z,41.87
2022-07-29T19:05:23.355Z,42.10
2022-07-29T19:07:51.153Z,42.10
2022-07-29T19:10:18.910Z,42.15
2022-07-29T19:12:46.644Z,42.09
2022-07-29T19:15:19.993Z,42.34
2022-07-29T19:17:48.803Z,42.44
2022-07-29T19:20:16.919Z,42.45
2022-07-29T19:22:44.875Z,42.76
2022-07-29T19:25:12.692Z,43.00
2022-07-29T19:27:41.794Z,43.33
2022-07-29T19:30:10.136Z,44.01
2022-07-29T19:32:38.814Z,44.27
2022-07-29T19:35:25.543Z,44.27
2022-07-29T19:37:55.612Z,44.33
2022-07-29T19:40:23.702Z,44.33
2022-07-29T19:42:52.989Z,44.42
2022-07-29T19:45:24.617Z,44.78
2022-07-29T19:47:53.481Z,44.90
2022-07-29T19:50:25.061Z,45.17
2022-07-29T19:52:53.193Z,45.43
2022-07-29T19:55:21.860Z,45.79
2022-07-29T19:57:52.602Z,46.03
2022-07-29T20:00:21.414Z,46.49
2022-07-29T20:02:49.910Z,46.97
2022-07-29T20:05:18.590Z,47.27
2022-07-29T20:07:47.788Z,47.60
2022-07-29T20:10:15.849Z,48.04
2022-07-29T20:12:43.705Z,48.63
2022-07-29T20:15:16.354Z,49.08
2022-07-29T20:17:44.663Z,49.35
2022-07-29T20:20:12.482Z,49.99
2022-07-29T20:22:40.185Z,50.32
2022-07-29T20:25:09.932Z,50.81
2022-07-29T20:27:40.467Z,51.15
2022-07-29T20:30:09.063Z,51.26
2022-07-29T20:32:40.826Z,51.65
2022-07-29T20:35:09.923Z,51.72
2022-07-29T20:37:52.246Z,51.93
2022-07-29T20:40:26.019Z,52.42
2022-07-29T20:42:55.555Z,52.56
2022-07-29T20:45:24.822Z,52.87
2022-07-29T20:47:53.280Z,53.15
2022-07-29T20:50:23.869Z,53.33
2022-07-29T20:52:52.774Z,53.47
2022-07-29T20:55:21.314Z,53.82
2022-07-29T20:57:49.046Z,54.22
2022-07-29T21:00:17.138Z,54.36
2022-07-29T21:02:44.882Z,54.80
2022-07-29T21:05:12.674Z,54.79
2022-07-29T21:07:40.450Z,55.01
2022-07-29T21:10:08.574Z,55.40
2022-07-29T21:12:36.526Z,55.74
2022-07-29T21:15:06.502Z,55.78
2022-07-29T21:17:36.111Z,55.81
2022-07-29T21:20:05.435Z,56.21
2022-07-29T21:22:33.186Z,56.08
2022-07-29T21:25:01.671Z,55.91
2022-07-29T21:27:48.138Z,55.98
2022-07-29T21:30:16.005Z,56.22
2022-07-29T21:32:43.978Z,56.45
2022-07-29T21:35:23.409Z,56.61
2022-07-29T21:37:59.736Z,56.49
2022-07-29T21:40:27.549Z,56.52
2022-07-29T21:42:55.247Z,56.64
2022-07-29T21:45:23.004Z,56.96
2022-07-29T21:47:50.840Z,57.04
2022-07-29T21:50:18.843Z,57.31
2022-07-29T21:52:46.577Z,57.18
2022-07-29T21:55:15.334Z,57.30
2022-07-29T21:57:46.351Z,57.38
2022-07-29T22:00:17.561Z,57.87
2022-07-29T22:02:45.660Z,58.39
2022-07-29T22:05:14.933Z,58.60
2022-07-29T22:07:56.477Z,58.57
2022-07-29T22:10:26.821Z,58.57
2022-07-29T22:12:57.120Z,58.75
2022-07-29T22:15:26.398Z,59.13
2022-07-29T22:17:54.175Z,59.32
2022-07-29T22:20:23.586Z,59.52
2022-07-29T22:22:51.676Z,59.56
2022-07-29T22:25:20.066Z,59.43
2022-07-29T22:27:48.367Z,59.49
2022-07-29T22:30:17.022Z,59.60
2022-07-29T22:32:44.958Z,59.61
2022-07-29T22:35:12.688Z,59.71
2022-07-29T22:37:40.410Z,59.74
2022-07-29T22:40:08.709Z,59.75
2022-07-29T22:42:36.617Z,60.08
2022-07-29T22:45:10.618Z,60.08
2022-07-29T22:47:47.947Z,60.26
2022-07-29T22:50:17.429Z,60.43
2022-07-29T22:52:46.880Z,60.64
2022-07-29T22:55:15.450Z,60.97
2022-07-29T22:57:43.271Z,60.88
2022-07-29T23:00:12.752Z,60.87
2022-07-29T23:02:41.384Z,61.17
2022-07-29T23:05:10.518Z,61.29
2022-07-29T23:07:38.634Z,61.49
2022-07-29T23:10:07.012Z,61.53
2022-07-29T23:12:34.905Z,61.49
2022-07-29T23:15:02.712Z,61.44
2022-07-29T23:17:36.106Z,61.31
2022-07-29T23:20:09.818Z,61.43
2022-07-29T23:22:37.830Z,61.54
2022-07-29T23:25:06.669Z,61.64
2022-07-29T23:27:34.582Z,61.64
2022-07-29T23:30:02.717Z,61.94
2022-07-29T23:32:30.539Z,61.99
2022-07-29T23:34:58.275Z,62.24
2022-07-29T23:37:26.806Z,62.39
2022-07-29T23:39:54.834Z,62.65
2022-07-29T23:42:22.823Z,62.69
2022-07-29T23:44:50.781Z,62.74
2022-07-29T23:47:18.556Z,62.65
2022-07-29T23:49:46.501Z,62.60
2022-07-29T23:52:14.237Z,62.79
2022-07-29T23:54:42.139Z,62.71
2022-07-29T23:57:09.873Z,62.84
2022-07-29T23:59:37.606Z,63.00
